createdAt,value
2018-02-16T00:01:57.563Z,5.18
2018-02-16T00:04:25.187Z,5.18
2018-02-16T00:06:52.751Z,5.15
2018-02-16T00:09:20.382Z,5.17
2018-02-16T00:11:48.010Z,5.17
2018-02-16T00:14:15.686Z,5.12
2018-02-16T00:16:43.323Z,5.08
2018-02-16T00:19:10.962Z,5.05
2018-02-16T00:21:38.603Z,5.01
2018-02-16T00:24:06.343Z,4.98
2018-02-16T00:26:33.922Z,4.90
2018-02-16T00:29:01.554Z,4.91
2018-02-16T00:31:29.131Z,4.91
2018-02-16T00:33:56.714Z,4.85
2018-02-16T00:36:24.334Z,4.88
2018-02-16T00:38:51.972Z,4.84
2018-02-16T00:41:19.602Z,4.88
2018-02-16T00:43:47.182Z,4.89
2018-02-16T00:46:14.819Z,4.84
2018-02-16T00:48:42.445Z,4.86
2018-02-16T00:51:10.056Z,4.89
2018-02-16T00:53:37.638Z,4.85
2018-02-16T00:56:05.222Z,4.82
2018-02-16T00:58:32.851Z,4.76
2018-02-16T01:01:00.482Z,4.68
2018-02-16T01:03:28.062Z,4.62
2018-02-16T01:05:55.634Z,4.61
2018-02-16T01:08:23.212Z,4.58
2018-02-16T01:10:50.864Z,4.53
2018-02-16T01:13:18.500Z,4.54
2018-02-16T01:15:46.070Z,4.51
2018-02-16T01:18:13.703Z,4.49
2018-02-16T01:20:41.281Z,4.49
2018-02-16T01:23:08.919Z,4.49
2018-02-16T01:25:36.614Z,4.48
2018-02-16T01:28:04.242Z,4.49
2018-02-16T01:30:31.830Z,4.48
2018-02-16T01:32:59.466Z,4.45
2018-02-16T01:35:27.038Z,4.44
2018-02-16T01:37:54.643Z,4.44
2018-02-16T01:40:22.214Z,4.42
2018-02-16T01:42:49.797Z,4.38
2018-02-16T01:45:17.374Z,4.38
2018-02-16T01:47:44.986Z,4.38
2018-02-16T01:50:12.687Z,4.39
2018-02-16T01:52:40.318Z,4.39
2018-02-16T01:55:07.900Z,4.42
2018-02-16T01:57:35.547Z,4.42
2018-02-16T02:00:03.281Z,4.40
2018-02-16T02:02:30.923Z,4.38
2018-02-16T02:04:58.499Z,4.36
2018-02-16T02:07:26.070Z,4.34
2018-02-16T02:09:53.656Z,4.34
2018-02-16T02:12:21.234Z,4.33
2018-02-16T02:14:48.866Z,4.35
2018-02-16T02:17:16.448Z,4.35
2018-02-16T02:19:44.087Z,4.39
2018-02-16T02:22:11.647Z,4.40
2018-02-16T02:24:39.268Z,4.42
2018-02-16T02:27:06.956Z,4.45
2018-02-16T02:29:34.540Z,4.45
2018-02-16T02:32:02.177Z,4.47
2018-02-16T02:34:29.753Z,4.48
2018-02-16T02:36:57.334Z,4.46
2018-02-16T02:39:24.964Z,4.45
2018-02-16T02:41:52.591Z,4.40
2018-02-16T02:44:20.215Z,4.40
2018-02-16T02:46:47.803Z,4.39
2018-02-16T02:49:15.439Z,4.38
2018-02-16T02:51:43.132Z,4.38
2018-02-16T02:54:10.702Z,4.37
2018-02-16T02:56:38.269Z,4.37
2018-02-16T02:59:05.905Z,4.33
2018-02-16T03:01:33.530Z,4.31
2018-02-16T03:04:01.169Z,4.27
2018-02-16T03:06:32.614Z,4.21
2018-02-16T03:09:00.208Z,4.23
2018-02-16T03:11:27.859Z,4.21
2018-02-16T03:13:55.425Z,4.23
2018-02-16T03:16:23.110Z,4.22
2018-02-16T03:18:50.677Z,4.16
2018-02-16T03:21:18.313Z,4.15
2018-02-16T03:23:45.955Z,4.15
2018-02-16T03:26:13.526Z,4.13
2018-02-16T03:28:41.158Z,4.12
2018-02-16T03:31:08.734Z,4.15
2018-02-16T03:33:36.302Z,4.14
2018-02-16T03:36:03.892Z,4.20
2018-02-16T03:38:31.515Z,4.24
2018-02-16T03:40:59.156Z,4.27
2018-02-16T03:43:26.730Z,4.21
2018-02-16T03:45:54.366Z,4.25
2018-02-16T03:48:21.941Z,4.28
2018-02-16T03:50:49.509Z,4.33
2018-02-16T03:53:17.143Z,4.38
2018-02-16T03:55:44.778Z,4.25
2018-02-16T03:58:12.350Z,4.20
2018-02-16T04:00:39.921Z,4.19
2018-02-16T04:03:07.550Z,4.24
2018-02-16T04:05:35.242Z,4.22
2018-02-16T04:08:02.881Z,4.25
2018-02-16T04:10:30.455Z,4.25
2018-02-16T04:12:58.034Z,4.26
2018-02-16T04:15:25.739Z,4.25
2018-02-16T04:17:53.363Z,4.27
2018-02-16T04:20:20.931Z,4.28
2018-02-16T04:22:48.516Z,4.29
2018-02-16T04:25:16.140Z,4.25
2018-02-16T04:27:43.770Z,4.22
2018-02-16T04:30:11.407Z,4.28
2018-02-16T04:32:38.989Z,4.31
2018-02-16T04:35:08.382Z,4.34
2018-02-16T04:37:36.159Z,4.31
2018-02-16T04:40:03.731Z,4.30
2018-02-16T04:42:31.364Z,4.34
2018-02-16T04:44:58.935Z,4.36
2018-02-16T04:47:26.486Z,4.38
2018-02-16T04:49:54.078Z,4.40
2018-02-16T04:52:21.710Z,4.41
2018-02-16T04:54:49.409Z,4.41
2018-02-16T04:57:17.028Z,4.43
2018-02-16T04:59:44.597Z,4.42
2018-02-16T05:02:12.193Z,4.35
2018-02-16T05:04:39.770Z,4.32
2018-02-16T05:07:07.404Z,4.32
2018-02-16T05:09:34.973Z,4.30
2018-02-16T05:12:02.543Z,4.30
2018-02-16T05:14:30.184Z,4.29
2018-02-16T05:16:57.758Z,4.35
2018-02-16T05:19:25.444Z,4.37
2018-02-16T05:21:53.084Z,4.39
2018-02-16T05:24:20.672Z,4.39
2018-02-16T05:26:48.244Z,4.42
2018-02-16T05:29:15.815Z,4.47
2018-02-16T05:31:43.510Z,4.50
2018-02-16T05:37:09.366Z,4.47
2018-02-16T05:39:36.997Z,4.42
2018-02-16T05:42:04.574Z,4.37
2018-02-16T05:44:32.218Z,4.40
2018-02-16T05:46:59.785Z,4.42
2018-02-16T05:49:27.418Z,4.50
2018-02-16T05:51:54.981Z,4.60
2018-02-16T05:54:22.549Z,4.68
2018-02-16T05:56:50.121Z,4.63
2018-02-16T05:59:17.772Z,4.67
2018-02-16T06:01:45.410Z,4.76
2018-02-16T06:04:13.060Z,4.79
2018-02-16T06:06:40.647Z,4.84
2018-02-16T06:09:08.398Z,4.89
2018-02-16T06:11:36.022Z,4.95
2018-02-16T06:14:03.710Z,5.00
2018-02-16T06:16:31.282Z,5.04
2018-02-16T06:18:58.854Z,5.14
2018-02-16T06:21:26.444Z,5.24
2018-02-16T06:23:54.010Z,5.34
2018-02-16T06:26:21.649Z,5.41
2018-02-16T06:28:49.292Z,5.49
2018-02-16T06:31:16.865Z,5.49
2018-02-16T06:33:44.458Z,5.57
2018-02-16T06:36:12.033Z,5.65
2018-02-16T06:38:39.662Z,5.75
2018-02-16T06:41:07.290Z,5.84
2018-02-16T06:43:34.872Z,5.97
2018-02-16T06:46:02.454Z,6.01
2018-02-16T06:48:30.077Z,6.10
2018-02-16T06:50:57.770Z,6.20
2018-02-16T06:53:25.352Z,6.27
2018-02-16T06:55:53.040Z,6.31
2018-02-16T06:58:20.680Z,6.40
2018-02-16T07:00:48.342Z,6.50
2018-02-16T07:03:15.961Z,6.55
2018-02-16T07:05:43.594Z,6.65
2018-02-16T07:08:11.227Z,6.79
2018-02-16T07:10:38.870Z,6.86
2018-02-16T07:13:06.447Z,6.97
2018-02-16T07:15:34.071Z,7.07
2018-02-16T07:18:01.639Z,7.17
2018-02-16T07:20:30.473Z,7.21
2018-02-16T07:22:58.118Z,7.38
2018-02-16T07:25:25.693Z,7.46
2018-02-16T07:27:53.327Z,7.64
2018-02-16T07:30:20.903Z,7.85
2018-02-16T07:32:48.488Z,7.97
2018-02-16T07:35:16.066Z,8.03
2018-02-16T07:37:43.704Z,8.14
2018-02-16T07:40:11.337Z,8.22
2018-02-16T07:42:38.905Z,8.26
2018-02-16T07:45:06.484Z,8.34
2018-02-16T07:47:34.068Z,8.40
2018-02-16T07:50:01.645Z,8.35
2018-02-16T07:52:29.263Z,8.29
2018-02-16T07:54:56.990Z,8.50
2018-02-16T07:57:24.594Z,8.58
2018-02-16T07:59:52.185Z,8.53
2018-02-16T08:02:20.408Z,8.61
2018-02-16T08:04:48.116Z,8.60
2018-02-16T08:07:15.777Z,8.72
2018-02-16T08:09:43.427Z,8.72
2018-02-16T08:12:11.063Z,8.76
2018-02-16T08:14:38.638Z,8.75
2018-02-16T08:17:06.261Z,8.70
2018-02-16T08:19:33.905Z,8.76
2018-02-16T08:22:01.479Z,8.65
2018-02-16T08:24:29.125Z,8.59
2018-02-16T08:26:56.697Z,8.56
2018-02-16T08:29:24.315Z,8.53
2018-02-16T08:31:51.890Z,8.75
2018-02-16T08:34:20.304Z,8.75
2018-02-16T08:36:47.886Z,8.72
2018-02-16T08:39:15.531Z,8.84
2018-02-16T08:41:43.168Z,8.84
2018-02-16T08:44:10.798Z,9.06
2018-02-16T08:46:38.393Z,9.23
2018-02-16T08:49:06.033Z,9.37
2018-02-16T08:51:33.601Z,9.50
2018-02-16T08:54:01.292Z,9.61
2018-02-16T08:56:28.870Z,9.79
2018-02-16T08:58:56.457Z,10.02
2018-02-16T09:01:24.124Z,10.03
2018-02-16T09:03:51.749Z,9.89
2018-02-16T09:06:19.370Z,9.86
2018-02-16T09:08:47.006Z,9.95
2018-02-16T09:11:14.597Z,10.22
2018-02-16T09:13:42.178Z,10.43
2018-02-16T09:16:09.755Z,10.47
2018-02-16T09:18:37.454Z,10.54
2018-02-16T09:21:05.087Z,10.72
2018-02-16T09:23:32.666Z,10.60
2018-02-16T09:26:00.270Z,10.56
2018-02-16T09:28:27.849Z,10.58
2018-02-16T09:30:55.482Z,10.77
2018-02-16T09:33:23.056Z,10.97
2018-02-16T09:35:52.234Z,11.14
2018-02-16T09:38:19.821Z,11.21
2018-02-16T09:40:47.394Z,11.16
2018-02-16T09:43:15.030Z,11.23
2018-02-16T09:45:42.611Z,11.25
2018-02-16T09:48:10.248Z,11.26
2018-02-16T09:50:37.891Z,11.29
2018-02-16T09:53:05.470Z,11.38
2018-02-16T09:55:33.112Z,11.82
2018-02-16T09:58:00.742Z,11.96
2018-02-16T10:00:28.333Z,11.96
2018-02-16T10:02:55.982Z,12.03
2018-02-16T10:05:23.610Z,11.92
2018-02-16T10:07:51.258Z,12.09
2018-02-16T10:10:18.890Z,12.16
2018-02-16T10:12:46.496Z,12.38
2018-02-16T10:15:14.142Z,12.41
2018-02-16T10:17:41.776Z,12.68
2018-02-16T10:20:09.466Z,13.09
2018-02-16T10:22:37.127Z,13.33
2018-02-16T10:25:04.704Z,13.54
2018-02-16T10:27:32.328Z,13.48
2018-02-16T10:29:59.973Z,13.55
2018-02-16T10:32:27.615Z,14.14
2018-02-16T10:34:55.185Z,14.06
2018-02-16T10:37:22.758Z,14.16
2018-02-16T10:39:50.343Z,13.91
2018-02-16T10:42:17.910Z,14.13
2018-02-16T10:44:45.544Z,14.22
2018-02-16T10:47:13.117Z,14.59
2018-02-16T10:49:40.749Z,14.90
2018-02-16T10:52:08.418Z,15.01
2018-02-16T10:54:35.986Z,14.83
2018-02-16T10:57:03.613Z,14.84
2018-02-16T10:59:31.248Z,14.74
2018-02-16T11:02:04.386Z,14.90
2018-02-16T11:04:37.473Z,15.23
2018-02-16T11:10:06.346Z,15.35
2018-02-16T11:12:33.981Z,15.54
2018-02-16T11:15:01.614Z,14.72
2018-02-16T11:17:29.182Z,15.04
2018-02-16T11:19:56.802Z,14.85
2018-02-16T11:22:24.429Z,15.25
2018-02-16T11:24:52.125Z,15.48
2018-02-16T11:27:19.695Z,15.99
2018-02-16T11:29:47.259Z,15.71
2018-02-16T11:32:14.876Z,15.49
2018-02-16T11:34:42.422Z,15.98
2018-02-16T11:37:10.046Z,15.76
2018-02-16T11:39:37.638Z,15.47
2018-02-16T11:42:05.202Z,16.75
2018-02-16T11:44:32.775Z,16.64
2018-02-16T11:47:00.351Z,16.81
2018-02-16T11:49:27.991Z,16.54
2018-02-16T11:51:55.568Z,17.04
2018-02-16T11:54:23.184Z,17.37
2018-02-16T11:56:50.826Z,15.82
2018-02-16T11:59:18.408Z,15.46
2018-02-16T12:01:46.037Z,15.71
2018-02-16T12:04:13.610Z,15.74
2018-02-16T12:06:41.315Z,16.09
2018-02-16T12:09:08.906Z,16.87
2018-02-16T12:11:36.469Z,16.73
2018-02-16T12:14:04.206Z,16.44
2018-02-16T12:16:31.784Z,16.32
2018-02-16T12:18:59.352Z,15.63
2018-02-16T12:21:27.008Z,14.87
2018-02-16T12:23:54.592Z,13.92
2018-02-16T12:26:22.283Z,13.75
2018-02-16T12:28:49.858Z,13.04
2018-02-16T12:31:17.430Z,12.86
2018-02-16T12:33:45.012Z,12.35
2018-02-16T12:36:12.596Z,12.13
2018-02-16T12:38:40.237Z,11.72
2018-02-16T12:41:07.809Z,11.91
2018-02-16T12:43:35.435Z,11.79
2018-02-16T12:46:03.071Z,11.61
2018-02-16T12:48:30.712Z,11.64
2018-02-16T12:50:58.360Z,11.33
2018-02-16T12:53:25.933Z,11.32
2018-02-16T12:55:53.515Z,11.28
2018-02-16T12:58:21.158Z,11.12
2018-02-16T13:00:48.735Z,10.83
2018-02-16T13:03:16.370Z,10.78
2018-02-16T13:05:43.995Z,10.66
2018-02-16T13:08:11.565Z,10.48
2018-02-16T13:10:39.149Z,10.38
2018-02-16T13:13:06.713Z,10.36
2018-02-16T13:15:34.349Z,10.31
2018-02-16T13:18:01.983Z,10.21
2018-02-16T13:20:29.558Z,10.15
2018-02-16T13:22:57.195Z,9.99
2018-02-16T13:25:24.797Z,9.91
2018-02-16T13:27:52.477Z,9.89
2018-02-16T13:30:20.104Z,9.87
2018-02-16T13:32:47.734Z,9.78
2018-02-16T13:35:15.325Z,9.86
2018-02-16T13:37:42.955Z,9.84
2018-02-16T13:40:10.605Z,9.85
2018-02-16T13:42:38.235Z,9.85
2018-02-16T13:45:05.802Z,9.88
2018-02-16T13:47:33.448Z,9.90
2018-02-16T13:50:01.101Z,9.98
2018-02-16T13:52:28.721Z,9.98
2018-02-16T13:54:56.306Z,10.01
2018-02-16T13:57:23.869Z,9.95
2018-02-16T13:59:51.478Z,9.87
2018-02-16T14:02:19.051Z,9.85
2018-02-16T14:04:46.681Z,9.78
2018-02-16T14:07:14.247Z,9.75
2018-02-16T14:09:41.817Z,9.64
2018-02-16T14:15:07.701Z,9.50
2018-02-16T14:17:35.333Z,9.47
2018-02-16T14:20:02.979Z,9.47
2018-02-16T14:22:30.755Z,9.36
2018-02-16T14:24:58.394Z,9.35
2018-02-16T14:27:26.025Z,9.37
2018-02-16T14:29:53.650Z,9.34
2018-02-16T14:32:21.279Z,9.34
2018-02-16T14:34:49.641Z,9.31
2018-02-16T14:37:17.297Z,9.20
2018-02-16T14:39:44.874Z,9.23
2018-02-16T14:42:12.498Z,9.13
2018-02-16T14:44:40.262Z,9.07
2018-02-16T14:47:07.935Z,9.04
2018-02-16T14:49:35.625Z,9.00
2018-02-16T14:52:03.195Z,8.96
2018-02-16T14:54:30.887Z,8.86
2018-02-16T14:56:58.450Z,8.75
2018-02-16T14:59:26.082Z,8.77
2018-02-16T15:01:53.669Z,8.71
2018-02-16T15:04:21.238Z,8.64
2018-02-16T15:06:48.834Z,8.49
2018-02-16T15:09:16.427Z,8.43
2018-02-16T15:11:44.066Z,8.42
2018-02-16T15:14:11.706Z,8.31
2018-02-16T15:16:39.339Z,8.23
2018-02-16T15:19:06.962Z,8.13
2018-02-16T15:21:34.546Z,8.05
2018-02-16T15:24:02.183Z,8.00
2018-02-16T15:26:29.758Z,7.92
2018-02-16T15:28:57.391Z,7.83
2018-02-16T15:31:25.034Z,7.75
2018-02-16T15:33:52.667Z,7.65
2018-02-16T15:36:20.256Z,7.58
2018-02-16T15:38:47.839Z,7.49
2018-02-16T15:41:15.491Z,7.38
2018-02-16T15:43:43.114Z,7.28
2018-02-16T15:46:10.682Z,7.20
2018-02-16T15:48:38.307Z,7.13
2018-02-16T15:51:06.107Z,7.05
2018-02-16T15:53:33.743Z,6.93
2018-02-16T15:56:01.443Z,6.80
2018-02-16T15:58:29.070Z,6.72
2018-02-16T16:00:56.697Z,6.64
2018-02-16T16:03:24.355Z,6.48
2018-02-16T16:05:51.955Z,6.44
2018-02-16T16:08:19.590Z,6.42
2018-02-16T16:10:47.159Z,6.36
2018-02-16T16:13:14.755Z,6.27
2018-02-16T16:15:42.433Z,6.19
2018-02-16T16:18:10.004Z,6.10
2018-02-16T16:20:37.694Z,6.02
2018-02-16T16:23:05.284Z,5.88
2018-02-16T16:25:32.926Z,5.80
2018-02-16T16:28:00.515Z,5.68
2018-02-16T16:30:28.147Z,5.61
2018-02-16T16:32:55.833Z,5.39
2018-02-16T16:35:23.476Z,5.33
2018-02-16T16:37:51.145Z,5.26
2018-02-16T16:40:18.721Z,5.16
2018-02-16T16:42:46.300Z,5.05
2018-02-16T16:45:13.930Z,4.96
2018-02-16T16:47:41.565Z,4.88
2018-02-16T16:50:09.196Z,4.81
2018-02-16T16:52:36.893Z,4.73
2018-02-16T16:55:04.572Z,4.66
2018-02-16T16:57:32.271Z,4.53
2018-02-16T16:59:59.847Z,4.43
2018-02-16T17:02:27.453Z,4.38
2018-02-16T17:04:55.027Z,4.35
2018-02-16T17:07:22.606Z,4.30
2018-02-16T17:09:50.302Z,4.21
2018-02-16T17:12:17.888Z,4.20
2018-02-16T17:14:45.499Z,4.15
2018-02-16T17:17:13.087Z,4.08
2018-02-16T17:19:40.681Z,4.01
2018-02-16T17:22:08.304Z,3.99
2018-02-16T17:24:35.875Z,3.92
2018-02-16T17:27:03.463Z,3.94
2018-02-16T17:29:31.051Z,3.96
2018-02-16T17:31:58.629Z,3.94
2018-02-16T17:34:26.269Z,3.89
2018-02-16T17:36:53.854Z,3.82
2018-02-16T17:39:21.485Z,3.76
2018-02-16T17:41:49.077Z,3.72
2018-02-16T17:44:16.716Z,3.69
2018-02-16T17:46:44.426Z,3.70
2018-02-16T17:49:12.017Z,3.66
2018-02-16T17:51:39.617Z,3.62
2018-02-16T17:54:07.403Z,3.62
2018-02-16T17:56:34.976Z,3.62
2018-02-16T17:59:02.626Z,3.61
2018-02-16T18:01:30.458Z,3.54
2018-02-16T18:03:58.094Z,3.45
2018-02-16T18:06:25.743Z,3.38
2018-02-16T18:08:53.375Z,3.31
2018-02-16T18:11:21.020Z,3.24
2018-02-16T18:13:48.594Z,3.22
2018-02-16T18:16:16.160Z,3.22
2018-02-16T18:18:43.734Z,3.22
2018-02-16T18:21:11.384Z,3.27
2018-02-16T18:23:39.015Z,3.34
2018-02-16T18:26:06.585Z,3.34
2018-02-16T18:28:34.151Z,3.34
2018-02-16T18:31:01.733Z,3.33
2018-02-16T18:33:29.302Z,3.26
2018-02-16T18:35:56.939Z,3.20
2018-02-16T18:38:24.514Z,3.14
2018-02-16T18:40:52.078Z,3.08
2018-02-16T18:43:19.716Z,3.04
2018-02-16T18:45:47.343Z,3.00
2018-02-16T18:48:14.974Z,2.99
2018-02-16T18:50:42.564Z,3.01
2018-02-16T18:53:10.143Z,2.99
2018-02-16T18:55:37.777Z,2.98
2018-02-16T18:58:05.353Z,2.96
2018-02-16T19:00:32.981Z,2.95
2018-02-16T19:03:00.618Z,2.91
2018-02-16T19:05:28.269Z,2.88
2018-02-16T19:07:55.852Z,2.83
2018-02-16T19:10:23.403Z,2.76
2018-02-16T19:12:51.107Z,2.72
2018-02-16T19:15:18.854Z,2.66
2018-02-16T19:17:46.434Z,2.61
2018-02-16T19:20:14.016Z,2.59
2018-02-16T19:22:41.629Z,2.55
2018-02-16T19:25:09.310Z,2.54
2018-02-16T19:27:36.931Z,2.51
2018-02-16T19:30:04.511Z,2.50
2018-02-16T19:32:32.241Z,2.46
2018-02-16T19:34:59.818Z,2.40
2018-02-16T19:37:27.518Z,2.38
2018-02-16T19:39:55.095Z,2.40
2018-02-16T19:42:22.666Z,2.39
2018-02-16T19:44:50.309Z,2.39
2018-02-16T19:47:17.883Z,2.37
2018-02-16T19:49:45.583Z,2.33
2018-02-16T19:52:13.158Z,2.37
2018-02-16T19:54:40.711Z,2.36
2018-02-16T19:57:08.346Z,2.30
2018-02-16T19:59:35.922Z,2.27
2018-02-16T20:02:03.687Z,2.21
2018-02-16T20:04:31.262Z,2.18
2018-02-16T20:06:58.840Z,2.17
2018-02-16T20:09:26.492Z,2.15
2018-02-16T20:11:54.121Z,2.14
2018-02-16T20:14:21.783Z,2.15
2018-02-16T20:16:49.391Z,2.16
2018-02-16T20:19:16.966Z,2.18
2018-02-16T20:21:44.561Z,2.21
2018-02-16T20:24:12.134Z,2.21
2018-02-16T20:26:39.761Z,2.19
2018-02-16T20:29:07.343Z,2.21
2018-02-16T20:31:34.991Z,2.17
2018-02-16T20:34:02.610Z,2.17
2018-02-16T20:36:30.195Z,2.19
2018-02-16T20:38:57.830Z,2.18
2018-02-16T20:41:25.407Z,2.18
2018-02-16T20:43:52.978Z,2.16
2018-02-16T20:46:20.543Z,2.15
2018-02-16T20:48:48.114Z,2.19
2018-02-16T20:51:15.749Z,2.19
2018-02-16T20:53:43.322Z,2.29
2018-02-16T20:56:10.923Z,2.34
2018-02-16T20:58:38.506Z,2.44
2018-02-16T21:01:06.076Z,2.43
2018-02-16T21:03:33.698Z,2.35
2018-02-16T21:06:01.311Z,2.26
2018-02-16T21:08:28.929Z,2.24
2018-02-16T21:10:56.567Z,2.23
2018-02-16T21:13:24.153Z,2.22
2018-02-16T21:15:51.779Z,2.20
2018-02-16T21:18:19.415Z,2.19
2018-02-16T21:20:47.051Z,2.18
2018-02-16T21:23:14.633Z,2.18
2018-02-16T21:25:42.217Z,2.17
2018-02-16T21:28:09.845Z,2.19
2018-02-16T21:30:37.422Z,2.22
2018-02-16T21:33:05.029Z,2.21
2018-02-16T21:35:32.707Z,2.19
2018-02-16T21:38:00.368Z,2.17
2018-02-16T21:40:28.048Z,2.12
2018-02-16T21:42:55.626Z,2.07
2018-02-16T21:45:23.198Z,2.03
2018-02-16T21:47:50.846Z,2.01
2018-02-16T21:50:18.479Z,1.93
2018-02-16T21:52:46.109Z,1.88
2018-02-16T21:55:13.678Z,1.90
2018-02-16T21:57:41.238Z,1.87
2018-02-16T22:00:08.858Z,1.91
2018-02-16T22:02:36.430Z,1.93
2018-02-16T22:05:04.059Z,1.94
2018-02-16T22:07:31.686Z,2.00
2018-02-16T22:09:59.249Z,2.04
2018-02-16T22:12:26.907Z,2.09
2018-02-16T22:14:54.430Z,2.14
2018-02-16T22:17:22.132Z,2.17
2018-02-16T22:19:49.708Z,2.22
2018-02-16T22:22:17.279Z,2.24
2018-02-16T22:24:44.918Z,2.18
2018-02-16T22:27:12.499Z,2.11
2018-02-16T22:29:40.127Z,2.07
2018-02-16T22:32:07.761Z,2.01
2018-02-16T22:34:35.340Z,1.93
2018-02-16T22:37:02.966Z,1.82
2018-02-16T22:39:30.606Z,1.79
2018-02-16T22:41:58.291Z,1.75
2018-02-16T22:44:25.914Z,1.71
2018-02-16T22:46:53.482Z,1.70
2018-02-16T22:49:21.065Z,1.64
2018-02-16T22:51:48.632Z,1.60
2018-02-16T22:54:16.202Z,1.60
2018-02-16T22:56:43.902Z,1.58
2018-02-16T22:59:11.530Z,1.49
2018-02-16T23:01:39.090Z,1.36
2018-02-16T23:04:06.662Z,1.27
2018-02-16T23:06:34.218Z,1.24
2018-02-16T23:09:01.846Z,1.24
2018-02-16T23:11:29.471Z,1.23
2018-02-16T23:13:57.029Z,1.26
2018-02-16T23:16:24.607Z,1.26
2018-02-16T23:18:52.189Z,1.28
2018-02-16T23:21:19.753Z,1.31
2018-02-16T23:23:47.390Z,1.29
2018-02-16T23:26:14.960Z,1.33
2018-02-16T23:28:42.522Z,1.36
2018-02-16T23:31:10.108Z,1.30
2018-02-16T23:33:37.735Z,1.31
2018-02-16T23:36:05.373Z,1.28
2018-02-16T23:38:33.014Z,1.29
2018-02-16T23:41:00.647Z,1.36
2018-02-16T23:43:28.162Z,1.39
2018-02-16T23:45:55.802Z,1.37
2018-02-16T23:48:23.442Z,1.43
2018-02-16T23:50:51.016Z,1.42
2018-02-16T23:53:18.591Z,1.44
2018-02-16T23:55:46.216Z,1.44
2018-02-16T23:58:13.890Z,1.44
